Date,TemperatureHighF,TemperatureAvgF,TemperatureLowF,DewpointHighF,DewpointAvgF,DewpointLowF,HumidityHigh,HumidityAvg,HumidityLow,PressureMaxIn,PressureMinIn,WindSpeedMaxMPH,WindSpeedAvgMPH,GustSpeedMaxMPH,PrecipitationSumIn
2013-1-1,15.1,7.4,-1.4,7.4,-1.5,-6.3,81,67,50,30.34,30.19,7,1,10,0.00
2013-1-2,23.0,17.5,11.7,13.2,9.0,3.3,81,69,51,30.19,30.07,11,3,13,0.00
2013-1-3,23.9,18.7,8.8,18.6,13.2,3.1,85,79,73,30.27,30.09,10,3,13,0.00
2013-1-4,30.3,20.6,9.0,17.5,12.8,3.3,83,72,58,30.22,30.10,13,4,17,0.00
2013-1-5,34.3,24.3,11.6,28.6,19.3,9.0,91,81,73,30.24,29.90,16,4,25,0.00
2013-1-6,27.6,21.9,15.7,20.7,16.0,9.2,86,78,70,30.29,29.93,12,3,18,0.00
2013-1-7,38.5,28.6,15.1,26.0,19.6,8.7,82,69,55,30.26,30.02,22,7,32,0.03
2013-1-8,39.5,30.4,15.9,32.7,24.8,13.5,92,80,66,30.10,29.89,23,5,30,0.02
2013-1-9,39.5,33.1,22.7,30.7,24.3,17.9,84,71,49,30.45,29.91,17,6,24,0.00
2013-1-10,38.0,30.4,20.5,33.8,24.6,17.3,97,80,54,30.48,29.84,10,2,15,0.17
2013-1-11,46.1,38.7,34.1,45.1,38.5,33.8,100,99,90,29.84,29.53,14,2,18,0.07
2013-1-12,48.2,30.3,17.5,43.3,22.8,9.2,89,73,64,30.03,29.52,31,10,35,0.00
2013-1-13,17.5,12.1,9.5,10.1,3.9,1.2,75,69,63,30.27,29.99,12,4,18,0.00
2013-1-14,21.9,13.7,6.5,11.0,6.0,1.3,85,72,58,30.49,30.28,13,2,16,0.00
2013-1-15,30.0,20.2,8.1,14.9,11.1,4.5,87,69,50,30.44,30.05,18,6,22,0.00
2013-1-16,33.4,27.0,21.0,30.2,19.6,10.7,89,74,59,30.15,29.77,22,8,29,0.00
2013-1-17,23.2,17.3,12.3,11.1,6.0,-0.3,82,61,44,30.43,30.15,11,2,17,0.00
2013-1-18,46.2,30.8,11.7,33.1,22.8,7.3,85,73,57,30.42,29.81,24,7,38,0.00
2013-1-19,46.7,34.2,9.0,33.0,24.7,-3.4,86,69,38,30.06,29.65,28,8,41,0.01
2013-1-20,14.0,8.3,3.9,-0.1,-3.8,-5.9,69,58,42,30.37,30.07,17,6,23,0.00
2013-1-21,7.7,-0.8,-6.5,-1.0,-10.7,-15.6,77,62,48,30.37,30.21,17,6,25,0.00
2013-1-22,6.0,-0.9,-7.2,-5.4,-10.7,-15.1,74,63,50,30.45,30.35,10,2,15,0.00
2013-1-23,17.5,9.4,-0.6,10.7,1.5,-10.5,80,70,59,30.55,30.14,16,5,25,0.00
2013-1-24,11.7,3.7,-4.3,2.8,-6.1,-11.7,71,63,52,30.73,30.37,9,2,13,0.00
2013-1-25,22.2,16.8,11.2,15.6,9.6,2.8,87,73,62,30.36,29.97,14,5,22,0.00
2013-1-26,24.1,15.1,4.8,12.4,5.3,-0.3,80,65,50,30.45,30.27,13,2,13,0.00
2013-1-27,30.9,27.5,23.6,30.4,21.8,12.5,98,80,62,30.32,29.85,14,3,17,0.00
2013-1-28,34.0,32.4,30.9,32.5,31.4,29.6,100,96,90,29.97,29.74,7,0,11,0.16
2013-1-29,47.1,37.8,32.5,47.1,37.5,31.7,100,99,94,29.74,29.50,13,2,13,0.52
2013-1-30,32.5,23.6,12.8,32.0,21.8,6.9,98,93,76,29.67,29.42,17,5,23,0.00
2013-1-31,12.6,6.9,0.0,8.1,-0.7,-8.4,83,71,62,30.22,29.67,16,6,22,0.00
2013-2-1,4.1,-0.9,-8.9,-1.3,-9.6,-15.8,82,66,53,30.39,30.18,13,3,20,0.00
2013-2-2,12.1,6.4,3.2,1.7,-0.4,-2.0,83,73,57,30.21,30.06,6,1,8,0.00
2013-2-3,17.5,12.0,5.6,9.4,4.6,0.7,86,72,58,30.09,29.99,12,3,18,0.00
2013-2-4,18.6,13.3,7.6,9.4,4.7,-0.6,87,69,46,30.07,29.95,8,1,8,0.01
2013-2-5,27.9,19.6,4.7,24.1,14.4,-0.6,90,80,71,30.14,29.77,18,4,22,0.00
2013-2-6,27.5,16.7,-1.0,25.4,12.5,-5.2,93,83,72,30.24,30.06,12,1,16,0.00
2013-2-7,32.7,28.6,24.1,31.7,27.2,21.6,96,94,90,30.19,30.00,9,2,13,0.00
2013-2-8,27.2,19.8,9.9,21.6,14.0,6.8,90,78,60,30.42,30.19,10,1,13,0.00
2013-2-9,27.6,20.0,6.3,24.1,16.6,3.0,92,87,81,30.41,30.07,15,5,24,0.00
2013-2-10,41.2,32.5,25.3,41.2,30.9,23.3,100,94,86,30.07,29.34,21,3,32,0.09
2013-2-11,35.9,29.6,23.5,34.1,25.1,17.3,94,83,74,30.01,29.33,25,10,32,0.02
2013-2-12,32.1,24.7,20.2,21.7,17.8,13.2,84,75,64,30.10,29.85,13,4,18,0.00
2013-2-13,39.6,30.4,17.7,30.9,24.1,15.6,94,78,59,29.86,29.63,8,2,12,0.00
2013-2-14,35.2,31.4,20.5,33.1,25.3,11.1,95,79,60,30.09,29.56,16,5,26,0.08
2013-2-15,21.6,16.2,10.5,11.0,4.9,0.4,69,61,49,30.28,30.09,11,3,16,0.00
2013-2-16,16.9,11.2,2.0,4.4,0.5,-3.0,79,62,47,30.26,30.21,10,2,15,0.00
2013-2-17,26.7,13.5,-3.1,18.6,4.1,-8.0,81,67,49,30.24,29.91,11,3,17,0.00
2013-2-18,42.2,32.1,20.2,32.1,25.2,16.5,89,76,65,29.91,29.54,18,6,25,0.00
2013-2-19,20.2,10.7,5.8,16.7,2.1,-5.2,87,68,57,30.27,29.61,20,10,30,0.00
2013-2-20,23.5,12.8,3.0,8.9,2.1,-5.2,73,62,50,30.47,30.28,11,4,20,0.00
2013-2-21,23.6,15.3,5.6,21.4,10.2,1.2,92,80,67,30.50,30.11,17,3,22,0.00
2013-2-22,28.1,24.8,21.6,26.0,22.5,19.6,94,91,86,30.11,29.84,14,2,23,0.07
2013-2-23,28.8,25.2,21.3,21.4,19.6,16.7,87,79,66,29.96,29.85,11,3,13,0.01
2013-2-24,37.2,24.1,7.6,24.9,16.9,4.3,90,75,53,30.16,29.97,10,1,12,0.02
2013-2-25,38.2,29.0,19.9,25.9,22.0,16.4,88,76,60,30.17,30.07,6,0,7,0.00
2013-2-26,35.9,29.5,23.0,26.1,23.9,20.5,93,80,66,30.08,29.76,21,6,29,0.00
2013-2-27,33.7,30.7,28.1,30.3,27.4,23.8,95,88,77,29.88,29.73,14,5,18,0.05
2013-2-28,32.1,30.4,26.4,27.5,23.3,16.7,88,75,63,30.17,29.88,11,4,16,0.02
2013-3-1,29.7,24.2,15.9,18.3,14.5,8.9,80,66,53,30.31,30.17,10,2,13,0.00
2013-3-2,30.3,17.9,6.9,11.7,6.2,1.6,84,62,31,30.34,30.22,10,1,16,0.00
2013-3-3,31.9,18.1,2.2,11.0,4.6,-2.1,84,59,25,30.22,30.13,8,0,10,0.00
2013-3-4,30.6,23.5,15.6,21.7,14.4,5.1,79,68,56,30.16,30.06,15,3,22,0.00
2013-3-5,27.3,25.6,22.7,26.2,23.2,19.9,96,90,76,30.19,29.97,12,3,16,0.01
2013-3-6,29.5,24.5,13.8,23.4,20.1,10.6,93,83,67,30.37,30.19,11,3,17,0.01
2013-3-7,34.7,21.8,5.8,18.8,13.9,2.5,89,73,50,30.47,30.36,8,1,8,0.05
2013-3-8,39.8,28.7,14.6,25.8,21.2,12.1,92,74,55,30.48,30.26,15,3,22,0.00
2013-3-9,40.3,35.7,30.6,37.1,31.3,23.7,97,84,73,30.26,29.77,17,4,23,0.30
2013-3-10,37.2,35.8,32.2,37.2,35.2,31.4,100,98,95,29.85,29.71,10,2,16,0.44
2013-3-11,32.2,30.3,27.2,31.6,28.8,23.8,98,94,87,29.80,29.61,10,2,17,0.14
2013-3-12,28.4,26.0,21.9,24.4,20.0,15.6,90,78,66,30.10,29.80,13,5,18,0.01
2013-3-13,31.3,23.2,16.9,17.5,11.3,7.5,84,62,37,30.38,30.10,14,4,20,0.00
2013-3-14,36.3,26.2,15.7,27.8,20.1,10.6,88,78,64,30.35,30.06,12,2,16,0.04
2013-3-15,34.9,30.9,26.7,33.1,28.7,24.4,94,92,85,30.06,29.85,9,1,18,0.12
2013-3-16,28.4,23.9,19.1,26.4,17.4,11.7,94,77,63,30.19,29.86,9,3,13,0.05
2013-3-17,29.4,20.8,10.9,16.1,10.2,3.6,75,63,50,30.32,30.05,13,3,18,0.00
2013-3-18,31.2,22.0,15.1,28.9,17.8,8.0,94,84,70,30.05,29.60,18,4,24,0.07
2013-3-19,26.6,18.1,10.7,8.3,6.2,2.7,75,60,41,30.12,29.75,22,10,34,0.00
2013-3-20,19.2,12.8,6.3,3.6,-0.1,-5.3,64,56,48,30.15,30.10,17,6,24,0.00
2013-3-21,27.2,16.7,6.1,9.3,4.7,-0.6,76,60,44,30.14,30.09,10,2,12,0.00
2013-3-22,35.6,22.0,6.9,15.0,9.5,2.0,83,60,37,30.12,30.09,8,1,10,0.03
2013-3-23,39.2,28.2,14.6,20.2,16.3,10.6,85,62,42,30.18,30.10,9,1,12,0.00
2013-3-24,32.5,29.9,27.5,26.4,22.9,19.3,91,75,61,30.13,29.89,11,3,15,0.02
2013-3-25,36.2,30.3,20.8,24.0,20.5,16.1,84,67,57,30.16,29.92,12,4,21,0.00
2013-3-26,37.9,32.9,27.0,25.5,21.2,18.3,74,62,50,30.29,30.16,10,2,13,0.00
2013-3-27,42.5,35.7,31.0,24.2,21.0,16.6,70,56,38,30.35,30.29,9,1,12,0.00
2013-3-28,47.6,33.9,20.6,21.7,18.8,15.9,85,57,32,30.39,30.33,9,1,11,0.00
2013-3-29,50.4,36.3,21.4,25.6,21.2,17.1,91,59,30,30.37,30.23,7,1,8,0.00
2013-3-30,49.2,42.5,37.0,42.4,33.1,25.0,98,71,56,30.23,29.84,22,6,26,0.05
2013-3-31,40.2,36.9,30.1,38.6,30.0,16.1,98,78,47,29.97,29.75,16,5,23,0.00
2013-4-1,32.7,27.9,23.2,17.3,12.9,8.7,65,53,38,30.23,29.97,15,5,22,0.00
2013-4-2,36.8,29.8,23.2,16.3,13.2,8.2,66,51,33,30.38,30.23,13,3,23,0.00
2013-4-3,44.2,33.9,20.6,21.2,15.0,7.3,80,48,26,30.49,30.26,14,3,18,0.00
2013-4-4,51.9,42.7,35.3,35.9,26.4,18.9,68,53,43,30.26,30.01,18,5,22,0.00
2013-4-5,47.4,38.2,27.9,30.6,22.9,17.7,84,56,34,30.27,30.10,14,2,26,0.00
2013-4-6,57.6,44.5,33.8,49.2,32.7,17.8,97,64,51,30.12,29.52,19,7,28,0.08
2013-4-7,50.2,41.5,36.0,36.7,33.5,31.0,87,74,56,29.98,29.64,14,4,25,0.00
2013-4-8,51.4,41.6,37.6,41.9,36.3,32.3,92,82,68,30.03,29.73,10,2,13,0.03
2013-4-9,39.8,37.7,33.1,38.6,35.8,30.3,98,93,77,30.09,29.93,17,3,24,1.39
2013-4-10,35.3,33.0,31.5,33.3,30.9,27.9,97,92,76,30.17,29.96,17,3,26,0.75
2013-4-11,36.0,34.0,32.4,35.0,31.6,27.0,97,91,76,29.96,29.64,23,7,34,0.23
2013-4-12,35.6,33.0,31.2,32.9,30.7,28.8,99,92,81,29.81,29.58,11,2,16,0.16
2013-4-13,36.3,33.3,30.1,29.5,26.3,23.9,89,76,62,30.02,29.80,16,4,21,0.00
2013-4-14,41.5,34.3,28.8,37.7,31.1,24.7,94,88,81,30.02,29.63,19,4,28,0.34
2013-4-15,50.4,43.8,37.5,44.0,34.7,26.8,100,73,43,30.00,29.62,26,7,34,0.24
2013-4-16,50.1,39.9,33.8,31.2,29.2,27.2,81,66,42,30.34,29.99,9,3,12,0.00
2013-4-17,41.1,37.6,33.2,37.7,33.4,28.0,97,85,69,30.35,29.86,17,4,29,0.59
2013-4-18,43.3,40.3,37.8,43.0,39.6,34.3,100,97,87,29.86,29.30,20,3,29,0.29
2013-4-19,37.6,33.4,29.4,34.4,26.5,19.5,91,76,57,29.95,29.32,21,10,35,0.01
2013-4-20,44.5,34.6,25.7,23.0,16.7,9.6,77,51,27,30.40,29.96,11,2,16,0.00
2013-4-21,51.1,40.2,31.5,38.4,29.8,16.9,97,67,53,30.48,30.20,19,6,29,0.07
2013-4-22,57.2,49.0,44.2,50.1,43.5,38.3,94,82,57,30.22,29.97,17,3,21,0.14
2013-4-23,56.0,39.9,34.1,47.4,33.2,26.6,93,77,61,30.05,29.90,17,5,23,0.03
2013-4-24,51.6,40.9,30.9,36.3,26.1,18.7,87,58,35,30.08,29.98,24,5,29,0.01
2013-4-25,48.9,41.9,36.6,36.7,31.6,26.7,90,68,44,30.27,29.99,17,4,21,0.01
2013-4-26,69.6,55.8,36.8,47.2,37.4,24.7,77,51,37,30.26,30.10,30,10,34,0.00
2013-4-27,67.3,58.2,49.8,49.4,46.8,44.0,87,67,49,30.20,30.01,18,6,22,0.00
2013-4-28,72.0,59.3,42.1,47.3,43.9,40.3,96,61,35,30.01,29.78,12,2,16,0.00
2013-4-29,70.3,61.7,55.9,57.5,52.2,45.2,96,72,56,29.83,29.67,19,4,22,0.21
2013-4-30,83.6,71.9,61.0,60.5,56.1,45.9,88,61,34,29.92,29.61,30,11,40,0.12
2013-5-1,71.3,57.1,43.8,48.6,44.7,36.0,85,65,41,30.32,29.93,16,5,23,0.00
2013-5-2,43.8,38.5,33.4,37.1,34.0,30.0,93,84,74,30.38,30.31,12,6,21,0.02
2013-5-3,43.1,37.0,32.2,42.8,35.8,30.0,99,95,88,30.31,30.08,9,3,15,0.72
2013-5-4,71.1,55.9,43.2,55.6,48.2,42.8,100,78,50,30.10,30.03,11,1,16,0.06
2013-5-5,75.3,60.6,46.2,50.9,46.9,41.3,96,65,32,30.10,30.02,9,0,17,0.00
2013-5-6,78.5,62.4,46.1,50.7,44.6,40.3,96,59,28,30.11,30.01,7,0,8,0.00
2013-5-7,80.3,65.3,47.3,49.1,42.0,32.1,91,49,20,30.07,29.99,11,1,16,0.00
2013-5-8,81.2,67.6,49.1,53.3,45.6,39.8,85,50,26,30.02,29.93,12,1,18,0.00
2013-5-9,66.0,58.4,48.2,57.1,53.8,46.6,97,85,60,29.95,29.88,14,1,23,0.84
2013-5-10,58.3,48.8,41.6,47.3,44.0,40.0,96,84,65,30.02,29.92,12,2,22,0.19
2013-5-11,51.0,47.7,41.6,47.9,36.0,24.8,94,66,38,30.07,29.79,21,7,31,0.00
2013-5-12,54.2,44.5,35.9,30.4,25.4,20.3,73,49,28,30.14,30.07,13,4,21,0.00
2013-5-13,64.2,50.4,31.0,37.9,30.3,24.4,86,50,26,30.17,29.82,13,2,21,0.00
2013-5-14,88.2,73.5,58.0,59.6,50.0,37.6,67,46,26,29.82,29.48,25,6,31,0.00
2013-5-15,76.5,69.5,60.2,57.7,45.0,39.0,66,43,29,29.84,29.53,13,2,25,0.00
2013-5-16,85.5,68.5,51.0,52.9,47.9,40.2,85,51,26,29.97,29.83,12,1,20,0.00
2013-5-17,61.8,55.1,48.3,54.5,46.3,33.5,98,75,38,30.08,29.96,9,2,18,0.70
2013-5-18,78.6,65.2,50.4,64.7,57.1,48.5,94,76,59,30.06,29.89,8,1,17,0.00
2013-5-19,84.9,72.7,60.4,66.4,61.8,57.3,95,71,43,29.89,29.61,19,3,28,0.00
2013-5-20,79.9,70.7,61.2,64.4,61.0,58.1,98,74,51,29.78,29.56,20,5,30,0.59
2013-5-21,73.0,66.6,59.5,63.6,59.2,56.5,97,78,60,29.68,29.54,16,3,23,0.07
2013-5-22,64.7,59.6,52.3,60.2,57.5,51.2,98,93,82,29.83,29.61,7,1,13,1.10
2013-5-23,63.9,54.0,45.4,51.5,41.7,32.0,97,68,32,30.32,29.83,11,2,20,0.19
2013-5-24,66.8,53.3,38.6,45.0,37.3,31.5,88,57,31,30.45,30.29,8,1,11,0.00
2013-5-25,62.0,54.7,49.6,44.7,41.7,35.6,82,63,42,30.36,30.27,8,1,13,0.00
2013-5-26,64.8,54.7,45.5,52.9,43.7,37.2,87,68,39,30.30,30.14,8,1,20,0.06
2013-5-27,56.0,53.7,50.7,53.6,48.7,41.2,98,84,62,30.14,29.87,10,2,17,0.31
2013-5-28,63.4,56.3,50.5,60.3,55.2,50.2,100,96,86,29.88,29.71,6,0,12,0.13
2013-5-29,83.8,68.9,59.9,67.7,62.6,59.2,100,83,52,29.85,29.76,18,1,25,0.49
2013-5-30,80.5,69.8,62.6,71.4,65.8,60.1,100,88,66,29.83,29.64,19,4,29,0.57
2013-5-31,79.2,71.4,63.5,64.1,61.5,58.1,89,72,50,29.71,29.63,20,6,30,0.00
2013-6-1,75.1,65.8,56.0,63.7,56.1,51.0,91,72,49,29.73,29.60,13,2,21,0.00
2013-6-2,64.5,54.2,46.2,55.1,43.0,38.6,89,67,43,30.03,29.73,9,2,18,0.00
2013-6-3,73.7,58.9,43.9,51.6,45.3,40.3,94,64,36,30.08,30.00,7,0,11,0.00
2013-6-4,56.7,54.8,50.7,55.1,52.4,49.7,97,92,81,30.16,30.05,8,0,13,0.35
2013-6-5,57.6,53.5,50.4,56.5,52.3,49.3,98,95,91,30.13,29.94,7,1,15,0.52
2013-6-6,57.3,54.0,51.0,55.8,52.4,50.5,98,94,87,29.98,29.92,5,0,12,0.06
2013-6-7,70.8,59.7,50.8,55.7,51.4,48.9,95,76,49,30.00,29.92,5,0,8,0.00
2013-6-8,68.4,61.1,55.6,56.3,54.0,51.6,96,79,56,29.98,29.91,7,0,15,0.02
2013-6-9,75.8,63.3,55.0,65.4,57.4,50.9,99,82,55,29.98,29.80,8,1,22,0.38
2013-6-10,81.4,68.5,57.6,64.8,61.8,57.6,100,82,54,29.85,29.76,5,0,8,0.11
2013-6-11,81.8,70.0,58.0,68.1,63.3,57.2,99,81,57,29.90,29.80,4,0,7,0.00
2013-6-12,78.3,67.3,59.6,68.8,64.9,58.7,99,93,69,29.90,29.66,7,0,18,1.02
2013-6-13,78.5,68.1,58.9,60.6,57.9,53.8,99,73,45,30.07,29.78,8,1,15,0.01
2013-6-14,78.8,67.2,53.8,60.6,55.8,51.3,96,69,46,30.15,29.97,8,0,12,0.00
2013-6-15,79.6,68.5,60.1,69.4,63.5,59.0,97,85,66,30.04,29.78,9,1,15,1.39
2013-6-16,84.1,72.4,60.1,66.6,57.8,50.1,100,66,33,29.89,29.84,8,0,13,0.00
2013-6-17,83.8,72.8,62.3,61.3,57.0,50.9,86,60,34,29.97,29.84,10,1,20,0.02
2013-6-18,75.6,65.0,54.7,58.3,50.8,45.8,89,62,39,30.08,29.97,7,1,13,0.00
2013-6-19,80.1,70.9,50.7,56.4,52.4,47.7,94,54,40,30.13,30.04,6,1,10,0.00
2013-6-20,85.7,75.0,61.2,62.8,58.3,53.6,80,58,36,30.10,30.00,11,2,18,0.00
2013-6-21,79.6,72.3,65.0,68.6,64.9,61.1,97,78,62,30.02,29.79,15,0,25,1.09
2013-6-22,82.8,71.2,66.1,70.2,67.1,64.3,98,87,64,30.10,29.85,13,1,17,1.09
2013-6-23,84.7,74.2,64.5,72.0,66.8,63.3,97,79,56,30.00,29.79,15,2,24,0.58
2013-6-24,79.6,73.2,69.1,69.5,66.9,65.2,90,81,67,29.97,29.83,14,1,25,0.00
2013-6-25,83.2,72.8,65.6,73.9,68.8,65.0,99,88,70,29.89,29.76,8,0,11,0.53
2013-6-26,84.5,76.2,69.6,72.0,70.2,66.5,100,83,62,29.75,29.69,7,0,11,0.00
2013-6-27,86.7,78.5,69.1,70.9,67.0,59.6,98,71,43,29.79,29.69,12,1,25,0.00
2013-6-28,76.3,68.9,65.3,67.6,62.7,56.9,97,82,61,29.73,29.63,9,1,20,0.67
2013-6-29,71.6,65.2,62.0,64.4,61.1,55.5,99,87,68,29.87,29.65,6,0,12,0.12
2013-6-30,80.3,68.1,56.5,58.1,53.2,45.3,89,62,31,30.06,29.87,5,0,12,0.00
2013-7-1,83.0,69.5,54.4,60.2,54.5,49.3,97,64,33,30.14,30.06,8,0,15,0.00
2013-7-2,77.7,67.5,56.3,59.6,54.1,45.8,93,65,37,30.12,30.06,7,0,13,0.00
2013-7-3,73.9,63.1,51.7,61.6,55.8,49.9,97,78,56,30.09,30.01,4,0,8,0.00
2013-7-4,83.2,71.0,58.4,62.1,59.5,56.6,98,70,43,30.05,29.97,9,1,18,0.00
2013-7-5,85.3,74.4,60.7,65.1,62.0,58.4,94,68,43,30.02,29.94,11,2,20,0.00
2013-7-6,87.6,77.3,67.3,67.1,64.3,60.9,81,65,47,29.98,29.91,10,1,16,0.00
2013-7-7,88.0,78.7,70.4,72.8,68.7,64.9,85,72,53,29.93,29.86,9,1,20,0.00
2013-7-8,89.7,80.2,72.8,75.2,72.0,68.9,91,77,59,29.96,29.83,10,1,15,0.00
2013-7-9,85.1,76.8,70.8,75.6,71.8,69.0,98,85,68,29.97,29.78,13,2,22,0.19
2013-7-10,79.2,73.0,62.7,69.6,61.0,55.0,87,68,47,30.02,29.82,12,1,20,0.00
2013-7-11,83.8,70.9,57.5,62.6,59.2,55.2,96,70,42,30.10,30.02,4,0,7,0.00
2013-7-12,82.8,71.8,58.7,62.4,59.6,56.2,97,68,42,30.13,30.03,8,0,13,0.00
2013-7-13,82.8,71.9,62.3,66.6,61.9,58.5,89,72,53,30.13,30.04,8,0,16,0.00
2013-7-14,87.4,75.2,59.9,69.1,64.0,57.9,94,70,45,30.21,30.13,7,0,14,0.00
2013-7-15,90.3,78.5,66.9,72.9,69.4,65.1,95,76,52,30.26,30.19,4,0,9,0.00
2013-7-16,91.2,81.9,72.5,75.2,72.9,71.0,96,76,55,30.25,30.20,6,0,14,0.00
2013-7-17,94.0,84.7,76.7,74.8,72.5,70.1,87,69,48,30.26,30.14,4,0,10,0.00
2013-7-18,92.3,84.4,76.3,73.9,71.9,69.5,85,67,50,30.14,29.84,10,1,18,0.00
2013-7-19,91.2,82.1,72.0,72.6,67.3,59.6,73,62,38,29.84,29.73,8,2,18,0.00
2013-7-20,83.6,74.1,64.7,64.7,62.0,59.4,86,67,46,29.94,29.82,3,0,7,0.00
2013-7-21,73.0,65.5,61.2,64.8,60.2,55.1,97,84,69,29.97,29.87,4,0,13,1.55
2013-7-22,84.9,72.0,59.9,72.3,65.2,59.0,100,81,62,29.89,29.60,8,1,19,0.02
2013-7-23,73.5,67.9,58.7,65.7,55.4,51.7,83,65,49,29.99,29.72,6,0,13,0.00
2013-7-24,76.1,65.9,51.6,56.7,52.5,47.2,96,65,39,30.08,30.00,3,0,9,0.00
2013-7-25,77.9,66.5,56.9,66.6,59.6,53.8,90,79,62,30.03,29.93,10,1,16,0.02
2013-7-26,77.2,68.1,56.3,66.9,59.4,49.2,92,75,46,29.95,29.84,8,1,19,0.02
2013-7-27,60.2,54.0,49.1,51.5,47.5,42.9,90,79,61,29.96,29.86,6,0,13,0.02
2013-7-28,66.9,58.2,49.9,54.7,51.3,47.4,94,79,59,30.03,29.85,8,1,15,0.02
2013-7-29,78.3,65.2,53.1,59.4,55.1,50.3,91,71,49,30.14,30.03,3,0,8,0.00
2013-7-30,78.1,67.3,58.0,62.4,59.2,56.1,94,77,52,30.15,30.06,6,0,13,0.00
2013-7-31,79.6,69.2,63.9,66.1,63.0,59.9,93,81,60,30.06,29.94,6,0,12,0.05
2013-8-1,79.2,66.6,58.1,60.8,57.6,53.5,93,74,42,30.00,29.87,3,0,15,0.00
2013-8-2,80.7,69.9,61.5,63.8,58.0,52.6,95,68,41,29.97,29.81,7,0,13,0.00
2013-8-3,77.4,65.8,53.2,57.3,53.2,48.2,95,67,39,30.14,29.98,6,0,13,0.00
2013-8-4,76.0,63.9,51.4,58.1,53.4,48.1,94,71,39,30.22,30.08,3,0,7,0.00
2013-8-5,72.8,64.2,55.1,64.9,59.7,52.8,95,86,69,30.08,29.84,9,0,16,0.09
2013-8-6,82.8,72.6,64.5,69.7,66.2,63.6,97,82,55,29.85,29.73,7,0,13,0.00
2013-8-7,77.6,67.3,60.2,69.9,60.9,56.4,97,81,56,29.99,29.73,7,0,16,0.02
2013-8-8,80.1,66.8,53.2,59.8,56.0,51.5,97,71,43,30.03,29.98,4,0,9,0.00
2013-8-9,80.3,70.5,61.3,61.6,57.8,53.1,87,66,42,30.07,29.96,5,0,13,0.00
2013-8-10,75.6,65.1,55.1,57.4,54.5,50.1,92,71,44,30.16,30.07,2,0,9,0.00
2013-8-11,70.3,63.1,56.2,64.5,60.3,53.4,98,91,81,30.11,30.02,1,0,5,0.90
2013-8-12,79.9,68.2,60.4,65.8,61.0,55.8,99,80,50,30.02,29.93,7,0,13,0.00
2013-8-13,72.0,61.5,50.7,56.0,50.7,46.8,94,70,42,30.17,30.01,4,0,12,0.00
2013-8-14,75.8,61.5,46.8,56.1,51.4,45.7,97,73,42,30.21,30.11,4,0,8,0.00
2013-8-15,78.8,66.9,57.6,58.0,54.8,45.5,89,68,32,30.13,30.08,2,0,8,0.00
2013-8-16,83.0,67.3,52.5,59.1,54.7,49.9,96,69,34,30.18,30.11,2,0,6,0.00
2013-8-17,83.0,68.4,53.6,59.8,56.2,52.3,97,69,35,30.23,30.14,3,0,9,0.00
2013-8-18,82.4,68.8,54.5,61.2,57.1,52.5,93,70,38,30.19,30.07,6,0,12,0.00
2013-8-19,81.4,70.9,60.9,64.4,61.2,57.5,90,73,51,30.07,29.99,5,0,13,0.00
2013-8-20,85.7,75.6,65.0,67.8,64.7,61.3,89,70,54,30.02,29.95,9,1,20,0.00
2013-8-21,88.4,78.5,72.0,73.1,68.8,64.5,93,73,56,29.99,29.88,10,2,19,0.00
2013-8-22,85.3,72.8,65.0,70.0,63.1,53.8,97,76,35,30.11,29.97,5,0,10,0.02
2013-8-23,84.3,70.9,57.8,63.1,58.6,53.8,93,68,41,30.17,30.10,6,0,10,0.00
2013-8-24,83.8,72.4,58.3,69.3,61.3,51.9,82,69,53,30.20,30.10,7,1,18,0.00
2013-8-25,90.1,80.9,73.2,72.2,69.2,66.2,83,69,52,30.13,30.03,11,2,21,0.00
2013-8-26,90.5,81.8,74.4,76.0,70.5,63.8,82,69,59,30.08,29.92,10,2,22,0.00
2013-8-27,93.4,83.9,76.8,75.1,72.6,69.8,84,70,51,29.92,29.79,6,1,13,0.00
2013-8-28,87.6,77.1,73.0,74.1,70.3,67.9,95,80,58,30.03,29.84,5,0,9,0.00
2013-8-29,88.8,77.0,64.3,73.4,69.0,63.1,97,78,58,30.06,29.92,6,0,13,0.00
2013-8-30,88.8,79.4,71.1,75.6,70.3,63.3,92,75,54,29.92,29.80,5,1,12,0.00
2013-8-31,87.4,73.1,61.2,65.3,62.8,59.3,95,72,44,29.88,29.76,3,0,9,0.00
2013-9-1,83.8,73.8,66.8,70.9,64.3,58.0,93,74,45,29.86,29.72,7,0,14,0.00
2013-9-2,71.1,62.9,53.8,60.0,54.5,50.1,93,75,53,30.02,29.85,5,0,12,0.00
2013-9-3,76.5,60.8,45.7,56.9,51.9,44.6,97,75,45,30.09,30.01,4,0,9,0.00
2013-9-4,84.5,69.8,55.0,66.8,59.7,52.8,93,73,47,30.12,30.02,3,0,13,0.00
2013-9-5,80.5,68.5,59.5,62.9,58.3,54.2,94,72,43,30.25,30.12,5,0,13,0.00
2013-9-6,86.3,71.4,55.9,66.3,58.6,47.8,84,65,49,30.18,29.93,8,1,13,0.00
2013-9-7,92.9,79.3,70.1,72.8,66.2,61.7,83,65,47,29.98,29.86,7,0,19,0.00
2013-9-8,71.8,67.4,61.0,67.2,61.3,56.0,90,81,71,30.07,29.93,6,1,13,0.00
2013-9-9,90.5,77.4,63.9,75.5,67.9,61.8,94,74,56,29.93,29.73,10,1,19,0.00
2013-9-10,91.0,82.3,74.9,69.9,65.6,61.5,70,58,42,29.94,29.77,7,1,14,0.00
2013-9-11,82.6,74.8,66.6,65.5,62.3,58.4,83,66,46,30.02,29.94,5,0,13,0.00
2013-9-12,72.5,63.6,55.1,59.0,52.2,45.3,87,68,44,30.16,29.95,6,1,16,0.00
2013-9-13,68.1,55.1,41.9,47.4,41.0,34.4,95,63,33,30.24,30.13,4,0,8,0.00
2013-9-14,71.1,58.6,44.3,52.8,45.8,40.9,89,65,42,30.15,29.96,7,1,15,0.00
2013-9-15,65.8,58.0,54.5,57.5,54.2,49.0,98,88,66,30.25,29.92,3,0,9,0.86
2013-9-16,67.1,54.3,42.2,48.9,42.9,38.9,90,67,41,30.41,30.26,6,0,10,0.00
2013-9-17,66.0,54.3,40.2,57.5,48.9,38.9,96,83,61,30.34,30.05,6,0,18,0.12
2013-9-18,79.8,68.6,58.7,68.0,61.9,56.4,95,80,61,30.05,29.82,9,1,19,0.01
2013-9-19,82.0,72.7,67.4,72.1,68.1,65.0,96,86,69,29.82,29.67,8,1,20,0.46
2013-9-20,67.6,62.5,54.4,66.7,58.6,51.2,98,88,64,29.84,29.70,7,0,15,0.09
2013-9-21,61.0,53.5,46.8,51.3,47.7,44.9,94,81,60,29.96,29.84,5,0,13,0.07
2013-9-22,67.3,51.7,38.9,48.9,43.7,37.9,97,77,49,30.08,29.96,5,0,10,0.01
2013-9-23,70.3,55.3,42.8,53.2,48.0,41.5,97,78,51,30.10,30.01,7,0,16,0.00
2013-9-24,74.6,58.0,44.3,54.6,49.3,43.1,99,76,43,30.03,29.95,5,0,12,0.00
2013-9-25,71.3,56.6,45.1,55.2,50.4,44.1,99,82,51,30.01,29.95,3,0,8,0.00
2013-9-26,76.8,59.1,45.5,59.1,51.9,44.7,99,80,47,30.08,29.98,8,0,13,0.00
2013-9-27,80.7,64.9,49.6,57.6,52.0,47.7,94,66,36,30.11,30.01,8,1,16,0.00
2013-9-28,76.8,61.9,52.5,65.3,55.4,49.5,96,81,56,30.01,29.79,17,2,26,0.23
2013-9-29,70.8,57.2,45.1,52.1,48.1,44.0,98,75,42,30.07,29.98,8,0,14,0.02
2013-9-30,72.3,61.0,48.3,51.0,47.0,43.7,86,62,38,29.98,29.79,15,2,26,0.00
2013-10-1,79.4,67.0,53.8,59.8,55.4,48.9,90,68,40,29.99,29.78,9,2,22,0.00
2013-10-2,77.9,60.2,44.2,50.4,44.9,37.8,96,63,26,30.12,29.96,4,0,13,0.00
2013-10-3,74.2,63.0,56.5,67.6,58.9,47.0,97,87,65,29.96,29.83,5,0,12,0.42
2013-10-4,60.2,58.5,57.2,59.5,57.9,56.6,100,98,96,30.00,29.89,7,0,14,0.16
2013-10-5,69.3,61.9,53.9,69.3,61.2,48.4,100,97,79,29.99,29.71,7,0,15,0.63
2013-10-6,56.6,50.1,42.1,48.6,42.5,37.4,96,77,50,29.76,29.68,4,0,8,0.02
2013-10-7,66.8,53.0,44.2,48.7,45.0,41.8,96,77,42,30.07,29.73,9,0,19,0.06
2013-10-8,74.6,57.5,40.3,50.6,44.9,39.3,96,67,32,30.12,30.05,15,1,21,0.01
2013-10-9,73.3,60.5,49.2,51.8,48.4,45.8,89,66,41,30.17,30.09,8,1,15,0.00
2013-10-10,73.9,57.0,43.2,52.5,47.2,41.4,96,73,40,30.16,30.03,8,0,16,0.00
2013-10-11,74.6,64.9,48.2,59.0,55.4,47.1,97,73,55,30.03,29.86,12,2,26,0.00
2013-10-12,65.0,60.6,46.0,57.5,48.0,35.8,82,64,45,30.18,29.83,10,1,16,0.00
2013-10-13,62.7,49.7,39.6,41.3,38.2,33.4,90,67,37,30.44,30.18,7,0,13,0.00
2013-10-14,61.2,43.9,32.1,44.2,37.9,30.7,96,81,51,30.44,30.13,8,0,18,0.00
2013-10-15,59.2,51.3,46.2,56.4,47.5,41.3,97,87,69,30.13,29.72,12,1,21,0.51
2013-10-16,49.9,48.2,44.8,47.8,45.4,40.7,97,90,82,29.94,29.76,6,0,12,0.00
2013-10-17,56.5,44.9,35.5,43.8,38.5,34.2,97,80,52,29.92,29.82,6,0,10,0.00
2013-10-18,48.5,44.3,39.1,43.1,38.9,35.5,92,82,66,29.94,29.79,9,1,16,0.02
2013-10-19,51.1,41.3,32.7,40.7,35.0,28.9,90,79,51,29.90,29.72,13,1,20,0.00
2013-10-20,48.2,40.3,32.4,43.6,37.5,31.1,98,90,79,29.84,29.68,10,1,16,0.02
2013-10-21,44.2,36.8,31.6,38.1,27.3,21.3,88,69,53,29.96,29.78,10,2,23,0.00
2013-10-22,46.7,35.6,27.6,31.0,26.7,22.7,86,71,49,30.01,29.94,7,0,15,0.00
2013-10-23,41.3,33.6,26.9,30.7,27.2,24.1,90,78,58,30.05,29.98,8,0,15,0.00
2013-10-24,42.9,36.5,32.5,27.9,25.7,24.2,78,65,48,30.33,30.06,9,1,17,0.00
2013-10-25,50.2,41.6,30.4,32.2,28.4,25.5,82,61,43,30.37,29.84,21,6,40,0.00
2013-10-26,50.7,46.0,39.5,36.6,31.5,27.3,72,57,44,30.09,29.76,16,3,25,0.00
2013-10-27,55.6,41.8,29.3,32.8,29.4,25.7,88,64,35,30.10,29.90,13,2,22,0.00
2013-10-28,42.6,37.5,32.5,32.3,28.5,26.2,88,70,58,30.43,30.10,10,1,17,0.00
2013-10-29,51.9,40.4,34.1,39.0,31.4,25.4,79,70,61,30.44,30.19,6,0,13,0.00
2013-10-30,54.2,50.6,39.8,52.2,48.1,37.7,97,91,85,30.16,29.76,11,1,15,0.00
2013-10-31,55.6,50.3,42.5,55.6,49.9,38.9,100,98,87,29.75,29.32,9,1,15,0.58
2013-11-1,46.2,43.0,38.9,41.9,39.2,35.5,92,86,78,29.78,29.34,9,1,20,0.02
2013-11-2,44.9,40.3,33.8,36.1,34.2,31.1,90,79,63,30.15,29.83,8,1,13,0.00
2013-11-3,50.5,35.6,25.4,36.4,29.7,23.9,96,81,51,30.30,30.17,14,2,25,0.00
2013-11-4,50.8,47.2,43.6,44.6,38.9,34.4,91,73,64,30.17,30.00,20,8,29,0.00
2013-11-5,49.1,43.8,35.0,48.8,40.9,33.4,99,90,68,30.28,29.84,8,0,8,1.09
2013-11-6,43.1,38.3,32.8,40.0,31.0,21.9,99,77,46,30.18,29.80,14,4,22,0.32
2013-11-7,38.0,32.8,27.8,29.4,26.9,23.4,89,79,69,30.27,30.19,9,1,13,0.00
2013-11-8,45.7,34.7,25.3,36.8,28.4,23.3,94,79,58,30.30,29.75,13,3,23,0.05
2013-11-9,49.1,45.9,40.9,39.9,37.1,26.8,80,71,57,30.03,29.72,24,8,32,0.10
2013-11-10,47.4,41.7,37.5,30.6,28.6,26.3,70,60,47,30.35,30.13,14,2,24,0.00
2013-11-11,42.6,31.3,22.7,33.3,22.7,10.7,94,71,54,30.60,30.07,12,2,16,0.07
2013-11-12,28.2,21.2,15.6,13.6,11.1,9.0,76,65,48,30.79,30.59,10,2,15,0.00
2013-11-13,43.5,31.7,19.1,25.9,17.0,11.3,75,56,40,30.59,30.02,24,9,34,0.00
2013-11-14,48.0,40.8,33.5,30.7,25.8,19.4,62,55,48,29.97,29.87,17,6,23,0.00
2013-11-15,53.5,43.6,31.3,37.0,32.8,26.4,84,66,50,29.93,29.85,12,2,17,0.00
2013-11-16,53.5,46.8,37.9,52.4,45.2,33.6,98,94,82,29.79,29.42,18,4,30,0.37
2013-11-17,56.2,47.6,38.9,53.7,44.0,31.3,96,88,69,29.66,29.22,22,7,30,0.17
2013-11-18,34.3,31.8,25.6,26.2,23.0,20.0,79,70,65,30.29,29.78,20,8,29,0.00
2013-11-19,40.9,31.0,19.5,28.3,22.2,16.5,90,71,49,30.39,30.20,15,2,21,0.00
2013-11-20,39.2,36.4,34.3,34.8,29.5,26.4,94,77,60,30.20,30.08,14,5,21,0.01
2013-11-21,40.1,37.4,31.3,37.3,35.0,29.8,95,91,86,30.34,30.11,9,1,15,0.00
2013-11-22,34.0,28.3,24.8,29.8,19.2,11.3,94,70,44,30.55,30.34,12,3,20,0.00
2013-11-23,24.7,15.5,10.4,17.1,4.3,-1.5,78,61,43,30.79,30.48,14,4,23,0.00
2013-11-24,25.8,17.6,7.7,6.5,3.0,-0.4,76,54,33,30.76,30.22,27,7,35,0.00
2013-11-25,34.9,29.0,23.3,26.4,19.8,3.9,85,69,41,30.22,30.01,30,10,40,0.00
2013-11-26,34.9,23.9,12.3,24.5,12.1,2.0,76,60,44,30.30,30.02,14,4,66,0.00
2013-11-27,26.4,18.7,10.7,12.5,8.2,2.2,79,64,49,30.36,30.22,9,1,13,0.00
2013-11-28,29.3,24.4,18.8,14.9,12.5,9.9,76,60,51,30.55,30.17,9,1,15,0.00
2013-11-29,30.9,22.1,10.4,19.2,14.2,7.0,86,73,54,30.64,30.32,13,3,18,0.00
2013-11-30,44.5,35.3,29.4,29.1,25.3,19.3,79,67,53,30.32,30.06,19,3,28,0.00
2013-12-1,40.2,31.0,24.2,26.8,24.3,21.4,90,77,54,30.19,30.00,4,0,5,0.00
2013-12-2,38.3,30.9,21.4,31.9,26.9,18.7,96,85,74,30.00,29.75,10,2,15,0.01
2013-12-3,34.6,33.5,32.7,34.3,32.9,31.6,99,98,95,29.79,29.71,10,2,13,0.23
2013-12-4,43.2,35.2,32.1,43.2,34.6,26.3,100,98,79,29.80,29.44,19,3,29,0.06
2013-12-5,32.1,17.5,7.9,26.3,8.5,0.1,79,68,55,30.34,29.64,20,8,31,0.00
2013-12-6,11.6,7.0,3.0,0.8,-1.1,-2.9,77,69,59,30.64,30.34,9,2,15,0.00
2013-12-7,11.9,4.3,-1.6,-1.1,-5.1,-7.6,77,66,42,30.78,30.65,7,1,12,0.00
2013-12-8,12.4,9.4,5.0,8.5,3.4,-3.2,86,76,60,30.67,30.04,8,1,12,0.00
2013-12-9,12.8,6.7,-2.4,7.7,-0.5,-9.7,86,72,56,30.21,30.00,15,4,24,0.00
2013-12-10,14.4,7.9,-2.8,8.2,-0.5,-9.6,79,68,55,30.28,29.91,17,5,26,0.00
2013-12-11,12.9,3.1,-3.3,8.7,-6.1,-12.7,84,66,48,30.58,30.27,10,3,16,0.00
2013-12-12,20.0,10.9,-3.1,10.6,1.7,-10.7,75,66,58,30.51,30.22,16,3,25,0.00
2013-12-13,21.0,17.2,14.0,12.4,9.4,4.1,81,71,62,30.30,30.18,11,2,16,0.00
2013-12-14,22.1,17.4,14.3,15.5,12.1,6.8,83,79,70,30.28,30.01,10,1,15,0.00
2013-12-15,14.3,5.9,-1.4,7.3,-4.3,-11.3,76,63,47,30.21,30.00,14,3,22,0.00
2013-12-16,14.6,6.1,-4.6,11.9,-0.7,-12.1,89,73,54,30.22,30.05,11,1,12,0.00
2013-12-17,31.9,24.2,14.8,24.3,17.3,6.6,90,75,60,30.11,29.91,18,5,26,0.01
2013-12-18,35.2,23.6,7.6,27.2,14.2,2.1,81,68,50,30.12,29.74,20,3,26,0.00
2013-12-19,32.2,25.2,19.9,26.7,20.6,16.8,92,83,73,30.03,29.79,13,3,23,0.00
2013-12-20,21.9,20.5,18.4,20.2,18.2,15.7,93,91,88,29.98,29.86,11,1,16,0.00
2013-12-21,25.8,23.6,21.6,24.3,21.8,19.9,94,93,86,29.95,29.83,7,1,10,0.00
2013-12-22,23.8,22.4,19.7,21.3,20.2,17.8,93,91,86,30.15,29.82,6,1,10,0.00
2013-12-23,21.9,8.3,-2.8,20.2,3.7,-8.3,93,81,74,30.51,30.15,8,1,12,0.00
2013-12-24,13.8,1.5,-14.6,5.8,-4.4,-20.7,85,76,68,30.61,30.32,10,1,15,0.00
2013-12-25,22.4,16.0,7.9,19.9,12.8,4.3,90,87,80,30.32,30.10,9,2,16,0.00
2013-12-26,23.0,18.4,12.1,18.9,13.7,7.4,88,82,77,30.24,30.13,7,0,8,0.00
2013-12-27,36.9,25.1,7.7,29.7,19.8,4.6,91,81,69,30.26,29.99,17,4,24,0.08
2013-12-28,43.3,35.8,26.0,30.8,28.4,24.1,95,75,58,30.06,29.74,19,5,62,0.16
2013-12-29,38.8,14.2,-7.2,31.6,6.6,-17.8,90,71,56,30.31,29.74,14,6,23,0.00
2013-12-30,2.4,-4.1,-12.2,-4.2,-13.5,-20.2,79,64,44,30.40,30.27,5,0,6,0.00
2013-12-31,5.2,1.7,-5.4,-3.9,-6.3,-13.8,79,69,60,30.45,30.25,6,0,10,0.00
2014-1-1,7.7,2.0,-6.1,-3.8,-8.6,-14.2,68,61,48,30.50,30.42,8,1,10,0.00
2014-1-2,10.9,4.1,-9.1,-1.3,-5.5,-14.6,78,65,46,30.50,30.38,9,1,12,0.00